createdAt,value
2023-04-22T00:03:10.502Z,52.20
2023-04-22T00:08:13.228Z,52.95
2023-04-22T00:13:15.873Z,53.37
2023-04-22T00:18:19.010Z,53.92
2023-04-22T00:23:21.779Z,53.69
2023-04-22T00:28:24.506Z,53.74
2023-04-22T00:33:27.039Z,54.87
2023-04-22T00:38:29.897Z,54.71
2023-04-22T00:43:32.545Z,55.53
2023-04-22T00:48:39.892Z,56.00
2023-04-22T00:53:42.513Z,56.59
2023-04-22T00:58:45.460Z,56.42
2023-04-22T01:03:50.092Z,57.10
2023-04-22T01:08:52.904Z,57.14
2023-04-22T01:13:55.502Z,57.57
2023-04-22T01:18:58.153Z,57.83
2023-04-22T01:24:03.663Z,58.49
2023-04-22T01:29:06.621Z,58.57
2023-04-22T01:34:09.790Z,58.50
2023-04-22T01:39:12.791Z,59.14
2023-04-22T01:44:16.388Z,59.33
2023-04-22T01:49:18.940Z,59.08
2023-04-22T01:54:21.698Z,59.27
2023-04-22T01:59:26.557Z,59.80
2023-04-22T02:04:29.371Z,60.00
2023-04-22T02:09:34.703Z,60.25
2023-04-22T02:14:37.278Z,60.81
2023-04-22T02:19:40.373Z,59.41
2023-04-22T02:24:43.384Z,55.18
2023-04-22T02:29:46.248Z,50.47
2023-04-22T02:34:49.442Z,45.93
2023-04-22T02:39:51.972Z,42.73
2023-04-22T02:44:54.770Z,42.88
2023-04-22T02:49:57.389Z,45.41
2023-04-22T02:55:01.719Z,46.61
2023-04-22T03:00:06.665Z,47.92
2023-04-22T03:05:10.836Z,48.57
2023-04-22T03:10:13.519Z,48.83
2023-04-22T03:15:18.824Z,47.89
2023-04-22T03:20:23.318Z,47.21
2023-04-22T03:25:26.219Z,47.30
2023-04-22T03:30:31.350Z,46.56
2023-04-22T03:35:34.646Z,46.70
2023-04-22T03:40:37.715Z,48.03
2023-04-22T03:45:51.606Z,48.87
2023-04-22T03:50:59.057Z,49.46
2023-04-22T03:56:04.872Z,50.16
2023-04-22T04:01:11.617Z,50.17
2023-04-22T04:06:16.165Z,50.69
2023-04-22T04:11:18.829Z,51.34
2023-04-22T04:16:23.065Z,50.79
2023-04-22T04:21:33.513Z,50.67
2023-04-22T04:26:37.951Z,50.64
2023-04-22T04:31:51.052Z,50.32
2023-04-22T04:36:54.834Z,49.85
2023-04-22T04:42:04.157Z,49.20
2023-04-22T04:47:15.197Z,49.04
2023-04-22T04:52:18.312Z,49.03
2023-04-22T04:57:21.080Z,48.64
2023-04-22T05:02:24.389Z,48.41
2023-04-22T05:07:27.235Z,47.74
2023-04-22T05:12:30.009Z,47.45
2023-04-22T05:17:34.638Z,46.70
2023-04-22T05:22:38.029Z,46.53
2023-04-22T05:27:41.959Z,45.90
2023-04-22T05:32:45.839Z,45.20
2023-04-22T05:37:49.046Z,44.69
2023-04-22T05:42:51.703Z,43.94
2023-04-22T05:47:54.558Z,43.35
2023-04-22T05:52:59.005Z,42.31
2023-04-22T05:58:03.657Z,40.75
2023-04-22T06:03:20.777Z,39.80
2023-04-22T06:08:23.760Z,39.82
2023-04-22T06:13:27.617Z,39.49
2023-04-22T06:18:30.301Z,38.53
2023-04-22T06:23:32.968Z,38.29
2023-04-22T06:28:35.619Z,36.89
2023-04-22T06:33:43.367Z,37.00
2023-04-22T06:38:46.078Z,38.28
2023-04-22T06:44:07.122Z,38.78
2023-04-22T06:49:39.734Z,38.03
2023-04-22T06:55:09.074Z,36.47
2023-04-22T07:00:12.457Z,36.07
2023-04-22T07:05:17.226Z,35.23
2023-04-22T07:10:21.245Z,35.39
2023-04-22T07:15:46.256Z,34.89
2023-04-22T07:20:48.930Z,34.51
2023-04-22T07:25:51.540Z,33.75
2023-04-22T07:30:54.600Z,34.83
2023-04-22T07:35:57.285Z,34.64
2023-04-22T07:40:59.851Z,35.25
2023-04-22T07:46:02.868Z,35.20
2023-04-22T07:51:06.101Z,35.17
2023-04-22T07:56:09.189Z,34.46
2023-04-22T08:01:11.743Z,34.41
2023-04-22T08:06:14.554Z,35.63
2023-04-22T08:11:17.159Z,33.99
2023-04-22T08:16:19.955Z,32.52
2023-04-22T08:21:22.534Z,32.21
2023-04-22T08:26:25.860Z,31.78
2023-04-22T08:31:28.525Z,33.36
2023-04-22T08:36:32.056Z,32.69
2023-04-22T08:41:35.906Z,32.30
2023-04-22T08:46:39.527Z,32.88
2023-04-22T08:51:43.631Z,33.12
2023-04-22T08:56:46.293Z,32.84
2023-04-22T09:01:53.364Z,33.07
2023-04-22T09:06:56.842Z,32.49
2023-04-22T09:11:59.448Z,30.61
2023-04-22T09:17:03.876Z,29.53
2023-04-22T09:22:10.643Z,28.45
2023-04-22T09:27:13.507Z,29.06
2023-04-22T09:32:17.193Z,30.32
2023-04-22T09:37:33.071Z,29.16
2023-04-22T09:42:49.813Z,28.50
2023-04-22T09:47:52.571Z,28.42
2023-04-22T09:53:18.961Z,29.61
2023-04-22T09:58:23.991Z,29.21
2023-04-22T10:03:26.837Z,29.94
2023-04-22T10:08:30.745Z,30.28
2023-04-22T10:13:33.421Z,30.62
2023-04-22T10:18:39.428Z,30.40
2023-04-22T10:23:49.977Z,28.60
2023-04-22T10:28:52.624Z,26.89
2023-04-22T10:34:11.149Z,25.63
2023-04-22T10:39:17.722Z,27.98
2023-04-22T10:44:22.611Z,29.10
2023-04-22T10:49:29.229Z,27.96
2023-04-22T10:54:36.512Z,28.52
2023-04-22T10:59:56.347Z,28.47
2023-04-22T11:05:22.870Z,27.13
2023-04-22T11:10:42.970Z,25.67
2023-04-22T11:15:51.529Z,26.11
2023-04-22T11:20:54.723Z,28.21
2023-04-22T11:25:59.720Z,28.36
2023-04-22T11:31:04.227Z,26.71
2023-04-22T11:36:15.775Z,25.29
2023-04-22T11:41:23.261Z,28.09
2023-04-22T11:46:38.444Z,29.13
2023-04-22T11:51:57.326Z,29.98
2023-04-22T11:57:08.612Z,28.80
2023-04-22T12:02:11.509Z,27.63
2023-04-22T12:07:15.491Z,26.45
2023-04-22T12:12:18.146Z,25.97
2023-04-22T12:17:24.770Z,26.82
2023-04-22T12:22:29.713Z,27.32
2023-04-22T12:27:32.351Z,27.38
2023-04-22T12:32:35.000Z,27.82
2023-04-22T12:37:37.613Z,27.03
2023-04-22T12:42:40.220Z,26.83
2023-04-22T12:47:43.125Z,26.18
2023-04-22T12:52:46.262Z,25.95
2023-04-22T12:57:51.464Z,26.03
2023-04-22T13:02:57.288Z,26.31
2023-04-22T13:08:07.219Z,26.85
2023-04-22T13:13:18.388Z,27.52
2023-04-22T13:18:23.523Z,29.13
2023-04-22T13:23:27.048Z,28.57
2023-04-22T13:28:31.030Z,27.64
2023-04-22T13:33:33.543Z,26.89
2023-04-22T13:38:36.634Z,26.83
2023-04-22T13:43:39.171Z,26.75
2023-04-22T13:48:41.663Z,27.05
2023-04-22T13:53:44.332Z,27.90
2023-04-22T13:58:47.015Z,27.95
2023-04-22T14:03:49.845Z,28.68
2023-04-22T14:08:52.919Z,29.24
2023-04-22T14:13:55.724Z,29.41
2023-04-22T14:18:58.431Z,29.16
2023-04-22T14:24:01.015Z,29.00
2023-04-22T14:29:03.918Z,29.23
2023-04-22T14:34:06.518Z,29.65
2023-04-22T14:39:09.325Z,29.72
2023-04-22T14:44:14.470Z,29.09
2023-04-22T14:49:17.049Z,29.08
2023-04-22T14:54:19.637Z,29.13
2023-04-22T14:59:22.612Z,29.50
2023-04-22T15:04:25.383Z,29.77
2023-04-22T15:09:28.035Z,30.23
2023-04-22T15:14:32.269Z,30.35
2023-04-22T15:19:35.066Z,30.71
2023-04-22T15:24:37.778Z,30.37
2023-04-22T15:29:45.010Z,30.42
2023-04-22T15:34:47.759Z,30.53
2023-04-22T15:39:50.472Z,30.72
2023-04-22T15:44:53.088Z,30.63
2023-04-22T15:49:57.808Z,30.78
2023-04-22T15:55:03.616Z,31.13
2023-04-22T16:00:13.094Z,31.19
2023-04-22T16:05:18.191Z,31.68
2023-04-22T16:10:21.336Z,31.85
2023-04-22T16:15:26.262Z,31.96
2023-04-22T16:20:29.620Z,32.23
2023-04-22T16:25:32.364Z,32.23
2023-04-22T16:30:35.048Z,32.88
2023-04-22T16:35:37.732Z,33.22
2023-04-22T16:40:40.378Z,33.54
2023-04-22T16:45:42.962Z,33.49
2023-04-22T16:50:45.625Z,33.58
2023-04-22T16:55:48.191Z,33.94
2023-04-22T17:00:51.246Z,34.57
2023-04-22T17:05:54.114Z,34.63
2023-04-22T17:10:56.758Z,35.02
2023-04-22T17:15:59.507Z,36.17
2023-04-22T17:21:02.171Z,37.11
2023-04-22T17:26:04.954Z,37.32
2023-04-22T17:31:08.050Z,37.50
2023-04-22T17:36:11.364Z,38.39
2023-04-22T17:41:14.036Z,38.86
2023-04-22T17:46:16.683Z,39.45
2023-04-22T17:51:19.341Z,40.09
2023-04-22T17:56:22.242Z,40.27
2023-04-22T18:01:25.696Z,41.16
2023-04-22T18:06:29.176Z,41.24
2023-04-22T18:11:32.431Z,41.82
2023-04-22T18:16:35.226Z,41.99
2023-04-22T18:21:41.613Z,42.48
2023-04-22T18:26:49.478Z,42.97
2023-04-22T18:31:52.232Z,43.45
2023-04-22T18:36:55.362Z,43.10
2023-04-22T18:41:57.923Z,42.93
2023-04-22T18:47:00.578Z,42.92
2023-04-22T18:52:03.307Z,43.70
2023-04-22T18:57:06.114Z,44.02
2023-04-22T19:02:13.022Z,44.03
2023-04-22T19:07:15.853Z,43.96
2023-04-22T19:12:19.709Z,44.55
2023-04-22T19:17:22.406Z,45.08
2023-04-22T19:22:25.311Z,45.85
2023-04-22T19:27:28.030Z,45.59
2023-04-22T19:32:31.315Z,45.62
2023-04-22T19:37:34.170Z,44.86
2023-04-22T19:42:36.856Z,45.37
2023-04-22T19:47:39.923Z,46.83
2023-04-22T19:52:47.728Z,47.18
2023-04-22T19:57:51.518Z,47.47
2023-04-22T20:02:54.451Z,46.89
2023-04-22T20:08:01.356Z,47.14
2023-04-22T20:13:07.474Z,46.98
2023-04-22T20:18:12.479Z,46.86
2023-04-22T20:23:17.609Z,46.83
2023-04-22T20:28:31.674Z,47.35
2023-04-22T20:33:35.833Z,47.76
2023-04-22T20:38:38.781Z,48.91
2023-04-22T20:43:45.007Z,49.03
2023-04-22T20:48:48.001Z,48.16
2023-04-22T20:53:51.420Z,48.32
2023-04-22T20:58:54.096Z,48.84
2023-04-22T21:04:00.059Z,49.04
2023-04-22T21:09:04.235Z,49.43
2023-04-22T21:14:07.761Z,48.74
2023-04-22T21:19:12.376Z,49.28
2023-04-22T21:24:15.854Z,49.59
2023-04-22T21:29:19.194Z,49.53
2023-04-22T21:34:22.237Z,49.45
2023-04-22T21:39:24.956Z,49.91
2023-04-22T21:44:28.496Z,49.89
2023-04-22T21:49:31.911Z,50.36
2023-04-22T21:54:34.607Z,49.97
2023-04-22T21:59:38.025Z,49.44
2023-04-22T22:04:42.717Z,50.60
2023-04-22T22:09:46.784Z,50.87
2023-04-22T22:14:49.312Z,50.77
2023-04-22T22:19:52.231Z,51.85
2023-04-22T22:24:54.835Z,51.67
2023-04-22T22:29:57.483Z,52.87
2023-04-22T22:35:00.193Z,52.92
2023-04-22T22:40:03.246Z,53.31
2023-04-22T22:45:06.849Z,53.94
2023-04-22T22:50:09.667Z,53.67
2023-04-22T22:55:12.172Z,53.77
2023-04-22T23:00:15.133Z,54.06
2023-04-22T23:05:17.850Z,54.46
2023-04-22T23:10:20.960Z,54.79
2023-04-22T23:15:23.675Z,54.77
2023-04-22T23:20:27.367Z,55.60
2023-04-22T23:25:30.324Z,55.82
2023-04-22T23:30:33.290Z,55.82
2023-04-22T23:35:37.792Z,55.51
2023-04-22T23:40:40.432Z,56.25
2023-04-22T23:45:43.252Z,56.89
2023-04-22T23:50:45.965Z,56.25
2023-04-22T23:55:48.873Z,56.45
